Time;durP1;ratioP1;P1;durP2;ratioP2;P2;SDS_P1;SDS_P2;PMS_P1;PMS_P2;Temp;Humidity;BMP_temperature;BMP_pressure;BME280_temperature;BME280_humidity;BME280_pressure;Samples;Min_cycle;Max_cycle;Signal;HPM_P1;HPM_P2
2022/08/05 00:01:13;0.00;0.00;0.62;0.00;0.00;0.62;2.73;2.40;;;32.40;30.40;;;;;;2217471;62;20376;-66
2022/08/05 00:03:58;0.00;0.00;0.62;0.00;0.00;0.62;3.50;2.60;;;32.40;30.50;;;;;;2218558;62;20590;-64
2022/08/05 00:06:45;0.00;0.00;0.62;0.00;0.00;0.62;5.37;2.47;;;32.30;30.50;;;;;;2219646;62;20375;-66
2022/08/05 00:09:30;0.00;0.00;0.62;0.00;0.00;0.62;4.30;2.67;;;32.30;30.60;;;;;;2221539;62;20378;-65
2022/08/05 00:12:14;0.00;0.00;0.62;0.00;0.00;0.62;4.60;3.40;;;32.30;30.60;;;;;;2222385;62;20440;-65
2022/08/05 00:14:59;0.00;0.00;0.62;0.00;0.00;0.62;7.00;3.57;;;32.20;30.60;;;;;;2221807;62;20447;-64
2022/08/05 00:17:44;0.00;0.00;0.62;0.00;0.00;0.62;4.77;2.90;;;32.30;30.80;;;;;;2222132;62;20421;-63
2022/08/05 00:20:28;0.00;0.00;0.62;0.00;0.00;0.62;5.30;3.63;;;32.20;30.80;;;;;;2222454;62;20376;-65
2022/08/05 00:23:15;0.00;0.00;0.62;0.00;0.00;0.62;6.10;3.37;;;32.20;30.80;;;;;;2221360;62;20488;-65
2022/08/05 00:26:00;0.00;0.00;0.62;0.00;0.00;0.62;6.10;3.67;;;32.20;30.80;;;;;;2222321;62;20379;-65
2022/08/05 00:28:45;0.00;0.00;0.62;0.00;0.00;0.62;5.37;3.33;;;32.20;30.90;;;;;;2218483;62;20413;-63
2022/08/05 00:31:30;0.00;0.00;0.62;0.00;0.00;0.62;4.20;3.10;;;32.20;31.00;;;;;;2217181;62;20372;-64
2022/08/05 00:34:14;0.00;0.00;0.62;0.00;0.00;0.62;6.90;3.77;;;32.10;30.90;;;;;;2218510;62;20352;-65
2022/08/05 00:36:59;0.00;0.00;0.62;0.00;0.00;0.62;9.10;4.30;;;32.10;31.00;;;;;;2219310;62;20456;-65
2022/08/05 00:39:45;0.00;0.00;0.62;0.00;0.00;0.62;6.47;3.20;;;32.10;31.00;;;;;;2222026;62;20423;-64
2022/08/05 00:42:32;0.00;0.00;0.62;0.00;0.00;0.62;5.57;3.00;;;32.10;31.00;;;;;;2222346;62;20623;-65
2022/08/05 00:45:16;0.00;0.00;0.62;0.00;0.00;0.62;5.80;3.27;;;32.00;30.90;;;;;;2221370;62;20595;-64
2022/08/05 00:48:01;0.00;0.00;0.62;0.00;0.00;0.62;5.83;3.60;;;32.00;30.90;;;;;;2222084;62;20399;-64
2022/08/05 00:50:48;0.00;0.00;0.62;0.00;0.00;0.62;6.10;3.30;;;32.00;31.10;;;;;;2222349;62;20794;-64
2022/08/05 00:53:33;0.00;0.00;0.62;0.00;0.00;0.62;3.40;2.83;;;32.00;31.00;;;;;;2221073;62;20386;-65
2022/08/05 00:56:19;0.00;0.00;0.62;0.00;0.00;0.62;8.10;3.80;;;32.00;31.10;;;;;;2222294;62;20629;-65
2022/08/05 00:59:05;0.00;0.00;0.62;0.00;0.00;0.62;4.93;3.80;;;31.90;31.00;;;;;;2222047;62;20782;-64
2022/08/05 01:01:50;0.00;0.00;0.62;0.00;0.00;0.62;4.77;3.30;;;31.90;31.00;;;;;;2221759;62;20392;-64
2022/08/05 01:04:34;0.00;0.00;0.62;0.00;0.00;0.62;4.27;3.53;;;31.90;31.00;;;;;;2222347;62;20440;-64
2022/08/05 01:07:19;0.00;0.00;0.62;0.00;0.00;0.62;5.63;3.50;;;31.90;31.20;;;;;;2220969;62;20398;-64
2022/08/05 01:10:06;0.00;0.00;0.62;0.00;0.00;0.62;5.07;2.80;;;31.90;31.20;;;;;;2222260;62;20371;-64
2022/08/05 01:13:01;0.00;0.00;0.62;0.00;0.00;0.62;5.80;3.93;;;31.90;31.20;;;;;;2222315;62;20411;-63
2022/08/05 01:15:57;0.00;0.00;0.62;0.00;0.00;0.62;6.30;4.00;;;31.90;31.30;;;;;;2221200;62;20375;-64
2022/08/05 01:18:46;0.00;0.00;0.62;0.00;0.00;0.62;6.97;3.90;;;31.80;31.20;;;;;;2447508;54;20801;-64
2022/08/05 01:21:54;0.00;0.00;0.62;0.00;0.00;0.62;4.30;3.50;;;31.80;31.30;;;;;;2217533;62;20440;-64
2022/08/05 01:24:58;0.00;0.00;0.62;0.00;0.00;0.62;4.93;4.07;;;31.80;31.30;;;;;;2218561;62;20552;-65
2022/08/05 01:28:14;0.00;0.00;0.62;0.00;0.00;0.62;7.13;4.70;;;31.80;31.30;;;;;;2224007;62;21168;-65
2022/08/05 01:31:08;0.00;0.00;0.62;0.00;0.00;0.62;6.00;4.40;;;31.80;31.40;;;;;;2225087;62;20375;-64
2022/08/05 01:34:01;0.00;0.00;0.62;0.00;0.00;0.62;4.97;3.50;;;31.80;31.40;;;;;;2226178;62;20374;-64
2022/08/05 01:36:53;0.00;0.00;0.62;0.00;0.00;0.62;4.67;3.20;;;31.70;31.30;;;;;;2224943;62;20673;-64
2022/08/05 01:39:41;0.00;0.00;0.62;0.00;0.00;0.62;5.10;3.63;;;31.70;31.30;;;;;;2226341;62;20805;-63
2022/08/05 01:42:30;0.00;0.00;0.62;0.00;0.00;0.62;8.13;3.93;;;31.70;31.30;;;;;;2226418;62;20373;-64
2022/08/05 01:45:19;0.00;0.00;0.62;0.00;0.00;0.62;6.90;3.90;;;31.70;31.30;;;;;;2226034;62;20381;-63
2022/08/05 01:48:05;0.00;0.00;0.62;0.00;0.00;0.62;5.00;3.53;;;31.70;31.40;;;;;;2222871;62;20402;-64
2022/08/05 01:50:52;0.00;0.00;0.62;0.00;0.00;0.62;5.53;4.20;;;31.60;31.30;;;;;;2222715;62;20374;-64
2022/08/05 01:53:38;0.00;0.00;0.62;0.00;0.00;0.62;9.03;4.50;;;31.60;32.00;;;;;;2222688;62;20731;-64
2022/08/05 01:56:26;0.00;0.00;0.62;0.00;0.00;0.62;5.50;3.27;;;31.60;31.40;;;;;;2223319;62;20422;-65
2022/08/05 01:59:15;0.00;0.00;0.62;0.00;0.00;0.62;7.33;3.80;;;31.60;31.40;;;;;;2225865;62;20373;-64
2022/08/05 02:02:02;0.00;0.00;0.62;0.00;0.00;0.62;5.70;3.27;;;31.60;31.40;;;;;;2226824;62;20366;-63
2022/08/05 02:04:48;0.00;0.00;0.62;0.00;0.00;0.62;4.97;3.80;;;31.60;31.50;;;;;;2226695;62;20379;-65
2022/08/05 02:07:35;0.00;0.00;0.62;0.00;0.00;0.62;7.00;4.27;;;31.60;31.50;;;;;;2222809;62;20402;-64
2022/08/05 02:10:20;0.00;0.00;0.62;0.00;0.00;0.62;5.23;3.40;;;31.50;31.50;;;;;;2222763;62;20373;-65
2022/08/05 02:13:12;0.00;0.00;0.62;0.00;0.00;0.62;4.13;3.67;;;31.50;31.50;;;;;;2222472;62;20723;-64
2022/08/05 02:16:04;0.00;0.00;0.62;0.00;0.00;0.62;4.57;3.90;;;31.50;31.50;;;;;;2222564;62;20394;-65
2022/08/05 02:18:55;0.00;0.00;0.62;0.00;0.00;0.62;6.73;3.73;;;31.50;31.50;;;;;;2218756;62;20418;-64
2022/08/05 02:21:48;0.00;0.00;0.62;0.00;0.00;0.62;4.70;3.77;;;31.50;31.50;;;;;;2217861;62;20510;-64
2022/08/05 02:24:37;0.00;0.00;0.62;0.00;0.00;0.62;6.77;4.77;;;31.40;31.50;;;;;;2218851;62;20372;-64
2022/08/05 02:27:23;0.00;0.00;0.62;0.00;0.00;0.62;4.60;3.80;;;31.40;31.70;;;;;;2223205;62;20442;-64
2022/08/05 02:30:10;0.00;0.00;0.62;0.00;0.00;0.62;5.73;3.80;;;31.40;31.70;;;;;;2225793;62;20775;-65
2022/08/05 02:32:57;0.00;0.00;0.62;0.00;0.00;0.62;3.37;3.07;;;31.40;31.70;;;;;;2226621;62;20585;-64
2022/08/05 02:35:45;0.00;0.00;0.62;0.00;0.00;0.62;5.47;3.80;;;31.40;31.70;;;;;;2225895;62;20617;-64
2022/08/05 02:38:31;0.00;0.00;0.62;0.00;0.00;0.62;6.60;4.23;;;31.40;31.70;;;;;;2454827;54;20405;-64
2022/08/05 02:41:18;0.00;0.00;0.62;0.00;0.00;0.62;4.60;3.90;;;31.40;31.70;;;;;;2226169;62;20392;-64
2022/08/05 02:44:07;0.00;0.00;0.62;0.00;0.00;0.62;4.33;3.13;;;31.40;31.70;;;;;;2225425;62;20423;-64
2022/08/05 02:46:55;0.00;0.00;0.62;0.00;0.00;0.62;5.47;3.67;;;31.30;31.70;;;;;;2226301;62;20446;-65
2022/08/05 02:49:43;0.00;0.00;0.62;0.00;0.00;0.62;6.13;4.80;;;31.30;31.70;;;;;;2226679;62;20370;-65
2022/08/05 02:52:31;0.00;0.00;0.62;0.00;0.00;0.62;9.90;5.43;;;31.30;31.80;;;;;;2225935;62;20370;-67
2022/08/05 02:55:16;0.00;0.00;0.62;0.00;0.00;0.62;11.33;5.73;;;31.30;32.10;;;;;;2226434;62;20374;-65
2022/08/05 02:58:01;0.00;0.00;0.62;0.00;0.00;0.62;9.00;4.37;;;31.20;32.20;;;;;;2225697;62;20626;-65
2022/08/05 03:00:47;0.00;0.00;0.62;0.00;0.00;0.62;7.80;3.87;;;31.20;32.20;;;;;;2226389;62;20411;-64
2022/08/05 03:03:34;0.00;0.00;0.62;0.00;0.00;0.62;5.33;4.00;;;31.20;32.50;;;;;;2226154;62;20749;-65
2022/08/05 03:06:21;0.00;0.00;0.62;0.00;0.00;0.62;6.17;3.90;;;31.10;32.40;;;;;;2224791;62;20350;-65
2022/08/05 03:09:11;0.00;0.00;0.62;0.00;0.00;0.62;5.13;3.73;;;31.10;32.50;;;;;;2222693;62;20739;-66
2022/08/05 03:11:56;0.00;0.00;0.62;0.00;0.00;0.62;6.00;4.10;;;31.10;32.50;;;;;;2222702;62;20367;-66
2022/08/05 03:14:40;0.00;0.00;0.62;0.00;0.00;0.62;7.23;3.90;;;31.00;32.50;;;;;;2222013;62;20371;-65
2022/08/05 03:17:25;0.00;0.00;0.62;0.00;0.00;0.62;6.60;3.90;;;31.00;32.50;;;;;;2222332;62;20438;-64
2022/08/05 03:20:11;0.00;0.00;0.62;0.00;0.00;0.62;7.97;4.77;;;31.10;32.60;;;;;;2221890;62;20527;-64
2022/08/05 03:22:56;0.00;0.00;0.62;0.00;0.00;0.62;6.97;5.10;;;31.00;32.70;;;;;;2222512;62;20367;-65
2022/08/05 03:25:42;0.00;0.00;0.62;0.00;0.00;0.62;8.40;4.73;;;31.00;33.00;;;;;;2222136;62;20371;-65
2022/08/05 03:28:28;0.00;0.00;0.62;0.00;0.00;0.62;9.70;5.63;;;31.00;33.20;;;;;;2448829;54;20520;-65
2022/08/05 03:31:14;0.00;0.00;0.62;0.00;0.00;0.62;5.80;4.53;;;30.90;33.30;;;;;;2222614;62;20371;-65
2022/08/05 03:33:59;0.00;0.00;0.62;0.00;0.00;0.62;7.23;5.50;;;30.80;33.40;;;;;;2222516;62;20691;-66
2022/08/05 03:36:44;0.00;0.00;0.62;0.00;0.00;0.62;10.10;5.97;;;30.80;33.70;;;;;;2222561;62;20377;-64
2022/08/05 03:39:29;0.00;0.00;0.62;0.00;0.00;0.62;11.77;6.30;;;30.70;34.00;;;;;;2226136;62;20390;-65
2022/08/05 03:42:16;0.00;0.00;0.62;0.00;0.00;0.62;7.77;6.17;;;30.60;33.90;;;;;;2225532;62;20398;-65
2022/08/05 03:45:01;0.00;0.00;0.62;0.00;0.00;0.62;7.53;5.70;;;30.50;33.90;;;;;;2226320;62;20377;-65
2022/08/05 03:47:45;0.00;0.00;0.62;0.00;0.00;0.62;7.33;5.57;;;30.40;33.70;;;;;;2223300;62;20403;-65
2022/08/05 03:50:42;0.00;0.00;0.62;0.00;0.00;0.62;12.27;5.83;;;30.40;33.90;;;;;;2221202;62;20397;-65
2022/08/05 03:53:34;0.00;0.00;0.62;0.00;0.00;0.62;6.50;4.20;;;30.30;34.10;;;;;;2222603;62;20762;-65
2022/08/05 03:56:38;0.00;0.00;0.62;0.00;0.00;0.62;4.60;3.77;;;30.20;34.20;;;;;;2222872;62;20387;-64
2022/08/05 03:59:30;0.00;0.00;0.62;0.00;0.00;0.62;9.53;6.13;;;30.20;34.30;;;;;;2226139;62;20582;-65
2022/08/05 04:02:17;0.00;0.00;0.62;0.00;0.00;0.62;9.07;5.73;;;30.20;34.30;;;;;;2226457;62;20403;-65
2022/08/05 04:05:04;0.00;0.00;0.62;0.00;0.00;0.62;9.30;4.10;;;30.20;34.40;;;;;;2225110;62;20409;-65
2022/08/05 04:07:49;0.00;0.00;0.62;0.00;0.00;0.62;5.43;4.30;;;30.20;34.50;;;;;;2228531;62;20405;-64
2022/08/05 04:10:36;0.00;0.00;0.62;0.00;0.00;0.62;6.20;4.10;;;30.20;34.50;;;;;;2560009;46;20370;-66
2022/08/05 04:13:21;0.00;0.00;0.62;0.00;0.00;0.62;4.93;3.93;;;30.10;34.50;;;;;;2225289;62;20686;-64
2022/08/05 04:16:08;0.00;0.00;0.62;0.00;0.00;0.62;5.07;3.77;;;30.10;34.50;;;;;;2226116;62;20410;-65
2022/08/05 04:18:53;0.00;0.00;0.62;0.00;0.00;0.62;7.60;5.67;;;30.20;34.50;;;;;;2224317;62;20513;-64
2022/08/05 04:21:38;0.00;0.00;0.62;0.00;0.00;0.62;6.83;5.57;;;30.10;34.50;;;;;;2222248;62;20719;-65
2022/08/05 04:24:23;0.00;0.00;0.62;0.00;0.00;0.62;6.93;5.03;;;30.20;34.70;;;;;;2222310;62;20412;-64
2022/08/05 04:27:08;0.00;0.00;0.62;0.00;0.00;0.62;6.30;4.90;;;30.10;34.60;;;;;;2220990;62;20398;-64
2022/08/05 04:29:53;0.00;0.00;0.62;0.00;0.00;0.62;6.13;4.40;;;30.10;34.60;;;;;;2222515;62;20412;-65
2022/08/05 04:32:39;0.00;0.00;0.62;0.00;0.00;0.62;5.37;4.30;;;30.10;34.70;;;;;;2222329;62;20375;-64
2022/08/05 04:35:23;0.00;0.00;0.62;0.00;0.00;0.62;9.63;5.57;;;30.10;34.70;;;;;;2221444;62;20375;-65
2022/08/05 04:38:08;0.00;0.00;0.62;0.00;0.00;0.62;9.10;5.20;;;30.00;34.70;;;;;;2222243;62;20430;-64
2022/08/05 04:40:53;0.00;0.00;0.62;0.00;0.00;0.62;7.27;5.10;;;30.00;34.90;;;;;;2222220;62;20420;-64
2022/08/05 04:43:39;0.00;0.00;0.62;0.00;0.00;0.62;11.83;5.27;;;30.00;35.00;;;;;;2222054;62;20374;-65
2022/08/05 04:46:24;0.00;0.00;0.62;0.00;0.00;0.62;7.23;6.03;;;29.90;35.00;;;;;;2222051;62;20424;-64
2022/08/05 04:49:10;0.00;0.00;0.62;0.00;0.00;0.62;11.83;6.27;;;29.90;35.10;;;;;;2221522;62;20375;-64
2022/08/05 04:51:55;0.00;0.00;0.62;0.00;0.00;0.62;8.40;5.20;;;29.90;35.10;;;;;;2222377;62;20428;-64
2022/08/05 04:54:40;0.00;0.00;0.62;0.00;0.00;0.62;7.53;5.10;;;29.80;35.20;;;;;;2222200;62;20399;-64
2022/08/05 04:57:25;0.00;0.00;0.62;0.00;0.00;0.62;12.10;6.67;;;29.80;35.20;;;;;;2221175;62;20428;-66
2022/08/05 05:00:12;0.00;0.00;0.62;0.00;0.00;0.62;6.63;5.10;;;29.80;35.20;;;;;;2222325;62;20450;-63
2022/08/05 05:02:57;0.00;0.00;0.62;0.00;0.00;0.62;8.33;5.37;;;29.80;35.20;;;;;;2222251;62;20412;-65
2022/08/05 05:05:43;0.00;0.00;0.62;0.00;0.00;0.62;6.37;4.83;;;29.80;35.30;;;;;;2221482;62;20375;-63
2022/08/05 05:08:28;0.00;0.00;0.62;0.00;0.00;0.62;5.80;4.73;;;29.80;35.20;;;;;;2454211;54;20398;-65
2022/08/05 05:11:12;0.00;0.00;0.62;0.00;0.00;0.62;5.30;4.30;;;29.80;35.30;;;;;;2225487;62;20367;-66
2022/08/05 05:13:57;0.00;0.00;0.62;0.00;0.00;0.62;6.60;4.77;;;29.70;35.20;;;;;;2226129;62;20583;-65
2022/08/05 05:16:42;0.00;0.00;0.62;0.00;0.00;0.62;8.83;5.50;;;29.70;35.10;;;;;;2224561;62;20375;-65
2022/08/05 05:19:27;0.00;0.00;0.62;0.00;0.00;0.62;7.23;4.23;;;29.70;35.10;;;;;;2221340;62;20417;-65
2022/08/05 05:22:13;0.00;0.00;0.62;0.00;0.00;0.62;6.27;5.23;;;29.70;35.10;;;;;;2222395;62;20367;-65
2022/08/05 05:24:57;0.00;0.00;0.62;0.00;0.00;0.62;6.73;4.80;;;29.70;35.10;;;;;;2222369;62;20394;-68
2022/08/05 05:27:42;0.00;0.00;0.62;0.00;0.00;0.62;6.50;5.20;;;29.70;35.10;;;;;;2221341;62;20398;-64
2022/08/05 05:30:27;0.00;0.00;0.62;0.00;0.00;0.62;7.70;4.73;;;29.70;35.20;;;;;;2222356;62;20370;-65
2022/08/05 05:33:12;0.00;0.00;0.62;0.00;0.00;0.62;5.13;4.07;;;29.60;35.00;;;;;;2221799;62;20367;-65
2022/08/05 05:35:59;0.00;0.00;0.62;0.00;0.00;0.62;5.80;3.63;;;29.70;35.00;;;;;;2222081;62;20756;-65
2022/08/05 05:38:45;0.00;0.00;0.62;0.00;0.00;0.62;5.80;4.60;;;29.60;34.90;;;;;;2222130;62;20391;-65
2022/08/05 05:41:30;0.00;0.00;0.62;0.00;0.00;0.62;6.27;4.10;;;29.60;34.90;;;;;;2221275;62;20489;-64
2022/08/05 05:44:15;0.00;0.00;0.62;0.00;0.00;0.62;5.20;4.33;;;29.60;35.10;;;;;;2222000;62;20412;-66
2022/08/05 05:47:00;0.00;0.00;0.62;0.00;0.00;0.62;5.40;3.70;;;29.50;35.10;;;;;;2223743;62;20378;-65
2022/08/05 05:49:45;0.00;0.00;0.62;0.00;0.00;0.62;5.30;3.80;;;29.50;35.10;;;;;;2225192;62;20366;-65
2022/08/05 05:52:30;0.00;0.00;0.62;0.00;0.00;0.62;6.70;4.13;;;29.40;35.10;;;;;;2225692;62;20446;-64
2022/08/05 05:55:17;0.00;0.00;0.62;0.00;0.00;0.62;8.27;4.37;;;29.40;35.10;;;;;;2225481;62;20386;-65
2022/08/05 05:58:02;0.00;0.00;0.62;0.00;0.00;0.62;6.27;3.80;;;29.40;35.10;;;;;;2221628;62;20442;-64
2022/08/05 06:00:47;0.00;0.00;0.62;0.00;0.00;0.62;7.17;4.03;;;29.40;35.10;;;;;;2222261;62;20432;-64
2022/08/05 06:03:31;0.00;0.00;0.62;0.00;0.00;0.62;8.40;4.00;;;29.40;35.10;;;;;;2218029;62;20408;-66
2022/08/05 06:06:16;0.00;0.00;0.62;0.00;0.00;0.62;7.00;4.90;;;29.30;35.00;;;;;;2221857;62;20606;-65
2022/08/05 06:09:01;0.00;0.00;0.62;0.00;0.00;0.62;10.47;9.37;;;29.30;34.90;;;;;;2222151;62;20612;-66
2022/08/05 06:11:48;0.00;0.00;0.62;0.00;0.00;0.62;11.67;8.83;;;29.30;34.90;;;;;;2221041;62;20370;-65
2022/08/05 06:14:33;0.00;0.00;0.62;0.00;0.00;0.62;7.57;6.23;;;29.20;34.50;;;;;;2224417;62;20401;-64
2022/08/05 06:17:18;0.00;0.00;0.62;0.00;0.00;0.62;8.03;4.80;;;29.10;34.30;;;;;;2221662;62;20790;-65
2022/08/05 06:20:04;0.00;0.00;0.62;0.00;0.00;0.62;7.10;5.33;;;28.90;34.50;;;;;;2221837;62;20777;-65
2022/08/05 06:22:49;0.00;0.00;0.62;0.00;0.00;0.62;6.50;5.00;;;28.70;35.40;;;;;;2222105;62;20585;-65
2022/08/05 06:25:34;0.00;0.00;0.62;0.00;0.00;0.62;6.37;4.53;;;28.40;36.10;;;;;;2220930;62;20367;-65
2022/08/05 06:28:20;0.00;0.00;0.62;0.00;0.00;0.62;6.63;4.10;;;28.10;36.30;;;;;;2221894;62;20404;-66
2022/08/05 06:31:05;0.00;0.00;0.62;0.00;0.00;0.62;5.40;3.30;;;28.00;36.60;;;;;;2222639;62;20410;-66
2022/08/05 06:33:50;0.00;0.00;0.62;0.00;0.00;0.62;3.97;3.00;;;27.90;36.90;;;;;;2221595;62;20632;-64
2022/08/05 06:36:35;0.00;0.00;0.62;0.00;0.00;0.62;5.30;3.50;;;27.80;36.90;;;;;;2223686;62;20377;-65
2022/08/05 06:39:21;0.00;0.00;0.62;0.00;0.00;0.62;4.83;3.23;;;27.80;37.00;;;;;;2226409;62;20441;-61
2022/08/05 06:42:06;0.00;0.00;0.62;0.00;0.00;0.62;5.50;3.00;;;27.80;37.10;;;;;;2225944;62;20422;-66
2022/08/05 06:44:52;0.00;0.00;0.62;0.00;0.00;0.62;4.77;3.00;;;27.90;37.20;;;;;;2226722;62;20423;-63
2022/08/05 06:47:37;0.00;0.00;0.62;0.00;0.00;0.62;7.40;4.80;;;27.90;37.30;;;;;;2225297;62;20394;-63
2022/08/05 06:50:21;0.00;0.00;0.62;0.00;0.00;0.62;5.20;3.53;;;28.00;37.40;;;;;;2226729;62;20419;-62
2022/08/05 06:53:07;0.00;0.00;0.62;0.00;0.00;0.62;3.53;2.57;;;28.00;37.30;;;;;;2226582;62;20722;-64
2022/08/05 06:55:51;0.00;0.00;0.62;0.00;0.00;0.62;4.07;2.30;;;28.10;37.30;;;;;;2225159;62;20374;-63
2022/08/05 06:58:36;0.00;0.00;0.62;0.00;0.00;0.62;5.80;3.60;;;28.10;37.10;;;;;;2640755;46;20820;-65
2022/08/05 07:01:22;0.00;0.00;0.62;0.00;0.00;0.62;4.17;3.40;;;28.20;37.20;;;;;;2222425;56;20375;-64
2022/08/05 07:04:07;0.00;0.00;0.62;0.00;0.00;0.62;4.77;4.27;;;28.20;37.10;;;;;;2217695;62;20610;-62
2022/08/05 07:06:52;0.00;0.00;0.62;0.00;0.00;0.62;4.43;3.00;;;28.30;37.20;;;;;;2218294;62;20372;-62
2022/08/05 07:09:37;0.00;0.00;0.62;0.00;0.00;0.62;6.10;3.17;;;28.30;37.00;;;;;;2466080;54;20499;-65
2022/08/05 07:18:44;0.00;0.00;0.62;0.00;0.00;0.62;3.93;3.00;;;28.40;36.70;;;;;;2210258;62;20410;-63
2022/08/05 07:21:30;0.00;0.00;0.62;0.00;0.00;0.62;3.77;2.90;;;28.40;36.60;;;;;;2213317;62;20380;-61
2022/08/05 07:24:16;0.00;0.00;0.62;0.00;0.00;0.62;8.10;3.30;;;28.50;36.50;;;;;;2214002;62;20426;-62
2022/08/05 07:27:01;0.00;0.00;0.62;0.00;0.00;0.62;3.37;3.07;;;28.50;36.50;;;;;;2214683;62;20400;-62
2022/08/05 07:29:45;0.00;0.00;0.62;0.00;0.00;0.62;4.50;3.10;;;28.50;36.50;;;;;;2214867;62;20356;-61
2022/08/05 07:32:34;0.00;0.00;0.62;0.00;0.00;0.62;6.27;3.20;;;28.60;36.70;;;;;;2213817;62;20369;-63
2022/08/05 07:35:20;0.00;0.00;0.62;0.00;0.00;0.62;4.80;2.70;;;28.60;36.60;;;;;;2213287;62;20443;-68
2022/08/05 07:38:05;0.00;0.00;0.62;0.00;0.00;0.62;3.77;2.67;;;28.60;36.40;;;;;;2214474;62;20781;-67
2022/08/05 07:40:51;0.00;0.00;0.62;0.00;0.00;0.62;3.53;2.90;;;28.70;36.40;;;;;;2212694;62;20369;-68
2022/08/05 07:43:35;0.00;0.00;0.62;0.00;0.00;0.62;5.07;3.57;;;28.70;36.30;;;;;;2214337;62;20592;-67
2022/08/05 07:46:20;0.00;0.00;0.62;0.00;0.00;0.62;4.97;3.50;;;28.70;36.30;;;;;;2213814;62;20437;-70
2022/08/05 07:49:05;0.00;0.00;0.62;0.00;0.00;0.62;4.30;3.37;;;28.80;36.30;;;;;;2214435;62;20515;-69
2022/08/05 07:51:51;0.00;0.00;0.62;0.00;0.00;0.62;3.93;3.30;;;28.80;36.20;;;;;;2214673;62;20369;-69
2022/08/05 07:54:36;0.00;0.00;0.62;0.00;0.00;0.62;6.30;3.80;;;28.80;36.30;;;;;;2213748;62;20701;-68
2022/08/05 07:57:21;0.00;0.00;0.62;0.00;0.00;0.62;8.23;3.20;;;28.80;36.20;;;;;;2214571;62;20416;-63
2022/08/05 08:00:07;0.00;0.00;0.62;0.00;0.00;0.62;5.57;3.50;;;28.90;36.20;;;;;;2214851;62;20445;-66
2022/08/05 08:02:57;0.00;0.00;0.62;0.00;0.00;0.62;4.97;3.10;;;28.90;36.20;;;;;;2213938;62;20647;-64
2022/08/05 08:05:43;0.00;0.00;0.62;0.00;0.00;0.62;4.53;3.00;;;28.90;36.00;;;;;;2214511;62;20446;-65
2022/08/05 08:08:29;0.00;0.00;0.62;0.00;0.00;0.62;5.50;3.23;;;28.90;36.00;;;;;;2213564;62;20428;-65
2022/08/05 08:11:14;0.00;0.00;0.62;0.00;0.00;0.62;7.03;4.10;;;28.90;36.00;;;;;;2214271;62;20385;-64
2022/08/05 08:13:58;0.00;0.00;0.62;0.00;0.00;0.62;5.50;3.40;;;28.90;36.00;;;;;;2217073;62;20687;-67
2022/08/05 08:16:43;0.00;0.00;0.62;0.00;0.00;0.62;6.93;3.37;;;28.90;36.00;;;;;;2213541;62;20620;-67
2022/08/05 08:19:28;0.00;0.00;0.62;0.00;0.00;0.62;5.97;3.57;;;28.90;36.00;;;;;;2216744;62;20424;-64
2022/08/05 08:22:13;0.00;0.00;0.62;0.00;0.00;0.62;4.23;3.50;;;28.90;36.00;;;;;;2214365;62;20372;-65
2022/08/05 08:24:59;0.00;0.00;0.62;0.00;0.00;0.62;4.17;3.10;;;28.90;35.90;;;;;;2213727;62;20372;-68
2022/08/05 08:27:44;0.00;0.00;0.62;0.00;0.00;0.62;3.60;2.90;;;28.90;35.90;;;;;;2214337;62;20406;-69
2022/08/05 08:30:29;0.00;0.00;0.62;0.00;0.00;0.62;3.23;2.90;;;28.90;35.90;;;;;;2214180;62;20744;-67
2022/08/05 08:33:13;0.00;0.00;0.62;0.00;0.00;0.62;4.37;2.87;;;28.90;36.60;;;;;;2214192;62;20465;-67
2022/08/05 08:35:58;0.00;0.00;0.62;0.00;0.00;0.62;3.77;3.47;;;28.90;35.90;;;;;;2214801;62;20430;-68
2022/08/05 08:38:42;0.00;0.00;0.62;0.00;0.00;0.62;3.43;3.13;;;28.90;36.00;;;;;;2213647;62;20404;-68
2022/08/05 08:41:33;0.00;0.00;0.62;0.00;0.00;0.62;4.03;3.07;;;28.90;36.00;;;;;;2214420;62;20368;-67
2022/08/05 08:44:21;0.00;0.00;0.62;0.00;0.00;0.62;5.90;2.87;;;28.90;36.00;;;;;;2214745;62;20369;-68
2022/08/05 08:47:07;0.00;0.00;0.62;0.00;0.00;0.62;3.70;3.23;;;28.90;35.90;;;;;;2213385;62;20425;-68
2022/08/05 08:49:55;0.00;0.00;0.62;0.00;0.00;0.62;3.53;3.23;;;28.90;35.90;;;;;;2214646;62;20368;-68
2022/08/05 08:52:44;0.00;0.00;0.62;0.00;0.00;0.62;3.33;2.90;;;28.90;36.00;;;;;;2213977;62;20368;-67
2022/08/05 08:55:29;0.00;0.00;0.62;0.00;0.00;0.62;3.70;3.17;;;29.00;36.70;;;;;;2214216;62;20735;-69
2022/08/05 08:58:16;0.00;0.00;0.62;0.00;0.00;0.62;3.40;2.77;;;29.00;36.00;;;;;;2214474;62;20396;-66
2022/08/05 09:01:01;0.00;0.00;0.62;0.00;0.00;0.62;3.63;2.70;;;28.90;35.90;;;;;;2213452;62;20631;-66
2022/08/05 09:03:50;0.00;0.00;0.62;0.00;0.00;0.62;3.47;3.13;;;29.00;35.90;;;;;;2214678;62;20364;-67
2022/08/05 09:06:34;0.00;0.00;0.62;0.00;0.00;0.62;3.60;2.77;;;29.00;35.90;;;;;;2214336;62;20421;-68
2022/08/05 09:09:19;0.00;0.00;0.62;0.00;0.00;0.62;4.90;3.50;;;29.00;36.00;;;;;;2213429;62;20360;-68
2022/08/05 09:12:07;0.00;0.00;0.62;0.00;0.00;0.62;4.23;3.00;;;29.00;35.90;;;;;;2216692;62;20368;-67
2022/08/05 09:14:54;0.00;0.00;0.62;0.00;0.00;0.62;3.50;2.50;;;29.00;35.90;;;;;;2213926;62;20578;-65
2022/08/05 09:17:40;0.00;0.00;0.62;0.00;0.00;0.62;4.07;2.70;;;29.00;35.80;;;;;;2214049;62;20392;-65
2022/08/05 09:20:25;0.00;0.00;0.62;0.00;0.00;0.62;4.80;2.70;;;29.00;35.80;;;;;;2214609;62;20369;-65
2022/08/05 09:23:13;0.00;0.00;0.62;0.00;0.00;0.62;4.37;3.00;;;29.00;35.80;;;;;;2213258;62;20381;-65
2022/08/05 09:26:07;0.00;0.00;0.62;0.00;0.00;0.62;4.33;2.97;;;29.00;35.90;;;;;;2214422;62;20369;-68
2022/08/05 09:28:57;0.00;0.00;0.62;0.00;0.00;0.62;3.37;2.87;;;29.00;36.00;;;;;;2214420;62;20385;-66
2022/08/05 09:31:59;0.00;0.00;0.62;0.00;0.00;0.62;4.10;2.50;;;29.00;35.90;;;;;;2213358;62;20774;-66
2022/08/05 09:34:49;0.00;0.00;0.62;0.00;0.00;0.62;3.90;2.60;;;29.10;36.00;;;;;;2214555;62;20692;-69
2022/08/05 09:37:34;0.00;0.00;0.62;0.00;0.00;0.62;2.90;2.60;;;29.10;35.90;;;;;;2213452;62;20396;-69
2022/08/05 09:40:30;0.00;0.00;0.62;0.00;0.00;0.62;4.17;1.93;;;29.10;35.80;;;;;;2214095;62;20373;-65
2022/08/05 09:43:29;0.00;0.00;0.62;0.00;0.00;0.62;2.37;2.10;;;29.10;35.80;;;;;;2214614;62;20365;-70
2022/08/05 09:46:27;0.00;0.00;0.62;0.00;0.00;0.62;3.50;2.60;;;29.10;36.50;;;;;;2213071;62;20368;-68
2022/08/05 09:49:26;0.00;0.00;0.62;0.00;0.00;0.62;3.43;2.30;;;29.10;36.40;;;;;;2214520;62;20385;-66
2022/08/05 09:52:24;0.00;0.00;0.62;0.00;0.00;0.62;2.90;2.00;;;29.10;35.60;;;;;;2212946;62;20598;-65
2022/08/05 09:55:11;0.00;0.00;0.62;0.00;0.00;0.62;4.33;2.33;;;29.10;35.60;;;;;;2214139;62;20779;-65
2022/08/05 09:57:56;0.00;0.00;0.62;0.00;0.00;0.62;3.00;2.10;;;29.10;35.60;;;;;;2214376;62;20400;-65
2022/08/05 10:00:54;0.00;0.00;0.62;0.00;0.00;0.62;2.70;1.80;;;29.20;36.10;;;;;;2213121;62;20365;-65
2022/08/05 10:03:39;0.00;0.00;0.62;0.00;0.00;0.62;5.63;2.30;;;29.10;35.30;;;;;;2214604;62;20492;-65
2022/08/05 10:06:26;0.00;0.00;0.62;0.00;0.00;0.62;2.77;2.30;;;29.10;35.20;;;;;;2214879;62;20363;-65
2022/08/05 10:09:14;0.00;0.00;0.62;0.00;0.00;0.62;3.40;2.03;;;29.10;35.00;;;;;;2214625;62;20357;-65
2022/08/05 10:12:10;0.00;0.00;0.62;0.00;0.00;0.62;2.77;2.10;;;29.20;35.00;;;;;;2214592;62;20422;-65
2022/08/05 10:15:13;0.00;0.00;0.62;0.00;0.00;0.62;3.67;2.27;;;29.10;34.80;;;;;;2213969;62;20393;-65
2022/08/05 10:18:13;0.00;0.00;0.62;0.00;0.00;0.62;3.30;2.33;;;29.10;34.80;;;;;;2214995;62;20775;-66
2022/08/05 10:21:01;0.00;0.00;0.62;0.00;0.00;0.62;2.07;1.50;;;29.10;34.70;;;;;;2214687;62;20752;-65
2022/08/05 10:23:47;0.00;0.00;0.62;0.00;0.00;0.62;3.60;2.07;;;29.10;34.60;;;;;;2214344;62;20666;-65
2022/08/05 10:26:32;0.00;0.00;0.62;0.00;0.00;0.62;3.93;1.80;;;29.10;34.50;;;;;;2214862;62;20623;-65
2022/08/05 10:29:17;0.00;0.00;0.62;0.00;0.00;0.62;3.30;1.97;;;29.10;35.10;;;;;;2214233;62;20733;-65
2022/08/05 10:32:03;0.00;0.00;0.62;0.00;0.00;0.62;3.80;2.30;;;29.10;34.30;;;;;;2214792;62;20630;-65
2022/08/05 10:34:49;0.00;0.00;0.62;0.00;0.00;0.62;2.53;1.80;;;29.10;34.30;;;;;;2215030;62;20400;-66
2022/08/05 10:37:34;0.00;0.00;0.62;0.00;0.00;0.62;2.83;1.93;;;29.00;34.10;;;;;;2213331;62;20392;-65
2022/08/05 10:40:30;0.00;0.00;0.62;0.00;0.00;0.62;3.90;2.43;;;29.00;34.00;;;;;;2214886;62;20726;-66
2022/08/05 10:43:30;0.00;0.00;0.62;0.00;0.00;0.62;6.40;3.00;;;29.00;34.00;;;;;;2217203;62;20402;-65
2022/08/05 10:46:17;0.00;0.00;0.62;0.00;0.00;0.62;3.60;2.27;;;29.00;34.10;;;;;;2214392;62;20411;-63
2022/08/05 10:49:07;0.00;0.00;0.62;0.00;0.00;0.62;2.50;2.07;;;29.00;34.20;;;;;;2214907;62;20412;-65
2022/08/05 10:51:56;0.00;0.00;0.62;0.00;0.00;0.62;2.67;2.10;;;28.90;34.20;;;;;;2213845;62;20653;-65
2022/08/05 10:55:02;0.00;0.00;0.62;0.00;0.00;0.62;2.80;1.80;;;28.90;34.30;;;;;;2214864;62;20381;-65
2022/08/05 10:58:06;0.00;0.00;0.62;0.00;0.00;0.62;3.27;2.13;;;28.90;34.30;;;;;;2214858;62;20393;-65
2022/08/05 11:00:54;0.00;0.00;0.62;0.00;0.00;0.62;3.47;2.33;;;28.90;34.40;;;;;;2214302;62;20392;-65
2022/08/05 11:04:05;0.00;0.00;0.62;0.00;0.00;0.62;3.73;2.40;;;28.90;34.40;;;;;;2214936;62;20390;-65
2022/08/05 11:07:05;0.00;0.00;0.62;0.00;0.00;0.62;3.37;2.57;;;28.90;34.50;;;;;;2213573;62;20377;-66